Flugplatz Bartholomä-Amalienhof

Für EDPU sind keine METAR/TAF Berichte vorhanden.
Es werden die Flugwettermeldungen vom Flugplatz Adolf Würth in 44 km Entfernung angezeigt.

Bericht für EDTY

vom 23.08. um 13:20 UTC

Wind 8 kt aus 70°

Sichtweite 10 km oder mehr

gute Sicht, keine Wolken < 5000 ft, keine CB, keine Wettererscheinungen (CAVOK)

Temperatur 24.0°C

Taupunkt 12.0°C

Luftfeuchtigkeit 47%

Luftdruck 1024 hPa

EDTY 231320Z 07008KT 010V100 CAVOK 24/12 Q1024

Prognose für EDTY

vom 23.08. um 00:00 UTC

Zwischen 00:00 UTC und 00:00 UTC

Wind 7 kt aus 70°

Sichtweite 10 km oder mehr

gering bewölkt in 4000 ft


Zwischen 00:00 und 00:00 UTC übergehend zu

variable Windrichtung mit 3 kt

Sichtweite 10 km oder mehr

gering bewölkt in 4000 ft

TAF EDTY 231100Z 2312/2321 07007KT 9999 FEW040 BECMG 2317/2319 VRB03KT
Impressum